sensor_id;sensor_type;location;lat;lon;timestamp;P1;durP1;ratioP1;P2;durP2;ratioP2
18114;SDS011;9184;54.390;18.620;2023-11-22T00:00:05;31.67;;;18.80;;
18114;SDS011;9184;54.390;18.620;2023-11-22T00:00:36;32.10;;;17.70;;
18114;SDS011;9184;54.390;18.620;2023-11-22T00:01:10;31.13;;;18.17;;
18114;SDS011;9184;54.390;18.620;2023-11-22T00:01:40;35.47;;;17.77;;
18114;SDS011;9184;54.390;18.620;2023-11-22T00:02:51;37.53;;;16.73;;
18114;SDS011;9184;54.390;18.620;2023-11-22T00:03:22;32.50;;;16.63;;
18114;SDS011;9184;54.390;18.620;2023-11-22T00:03:54;33.63;;;18.17;;
18114;SDS011;9184;54.390;18.620;2023-11-22T00:04:24;32.17;;;17.60;;
18114;SDS011;9184;54.390;18.620;2023-11-22T00:04:55;33.20;;;19.47;;
18114;SDS011;9184;54.390;18.620;2023-11-22T00:05:28;39.43;;;21.13;;
18114;SDS011;9184;54.390;18.620;2023-11-22T00:05:58;39.13;;;22.47;;
18114;SDS011;9184;54.390;18.620;2023-11-22T00:06:29;41.57;;;22.93;;
18114;SDS011;9184;54.390;18.620;2023-11-22T00:07:00;38.13;;;21.83;;
18114;SDS011;9184;54.390;18.620;2023-11-22T00:07:30;43.30;;;23.87;;
18114;SDS011;9184;54.390;18.620;2023-11-22T00:08:01;43.00;;;24.00;;
18114;SDS011;9184;54.390;18.620;2023-11-22T00:08:31;43.67;;;23.50;;
18114;SDS011;9184;54.390;18.620;2023-11-22T00:09:02;46.87;;;24.70;;
18114;SDS011;9184;54.390;18.620;2023-11-22T00:09:34;46.23;;;24.03;;
18114;SDS011;9184;54.390;18.620;2023-11-22T00:10:06;45.80;;;24.30;;
18114;SDS011;9184;54.390;18.620;2023-11-22T00:10:38;47.37;;;23.93;;
18114;SDS011;9184;54.390;18.620;2023-11-22T00:11:09;42.53;;;22.23;;
18114;SDS011;9184;54.390;18.620;2023-11-22T00:11:40;44.17;;;23.10;;
18114;SDS011;9184;54.390;18.620;2023-11-22T00:12:11;42.03;;;20.63;;
18114;SDS011;9184;54.390;18.620;2023-11-22T00:12:41;33.40;;;19.37;;
18114;SDS011;9184;54.390;18.620;2023-11-22T00:13:12;33.67;;;20.20;;
18114;SDS011;9184;54.390;18.620;2023-11-22T00:13:45;37.13;;;20.07;;
18114;SDS011;9184;54.390;18.620;2023-11-22T00:14:16;34.80;;;20.00;;
18114;SDS011;9184;54.390;18.620;2023-11-22T00:14:47;28.67;;;18.10;;
18114;SDS011;9184;54.390;18.620;2023-11-22T00:15:17;38.33;;;19.33;;
18114;SDS011;9184;54.390;18.620;2023-11-22T00:15:49;32.53;;;19.57;;
18114;SDS011;9184;54.390;18.620;2023-11-22T00:16:20;36.80;;;18.93;;
18114;SDS011;9184;54.390;18.620;2023-11-22T00:16:51;33.07;;;18.37;;
18114;SDS011;9184;54.390;18.620;2023-11-22T00:17:21;31.33;;;17.97;;
18114;SDS011;9184;54.390;18.620;2023-11-22T00:17:55;34.43;;;18.70;;
18114;SDS011;9184;54.390;18.620;2023-11-22T00:18:27;32.83;;;17.53;;
18114;SDS011;9184;54.390;18.620;2023-11-22T00:18:58;35.37;;;17.90;;
18114;SDS011;9184;54.390;18.620;2023-11-22T00:19:30;41.20;;;20.40;;
18114;SDS011;9184;54.390;18.620;2023-11-22T00:20:00;37.87;;;21.30;;
18114;SDS011;9184;54.390;18.620;2023-11-22T00:20:35;47.63;;;23.80;;
18114;SDS011;9184;54.390;18.620;2023-11-22T00:21:06;57.53;;;24.57;;
18114;SDS011;9184;54.390;18.620;2023-11-22T00:21:38;58.57;;;25.77;;
18114;SDS011;9184;54.390;18.620;2023-11-22T00:22:08;65.53;;;27.50;;
18114;SDS011;9184;54.390;18.620;2023-11-22T00:22:43;66.67;;;28.87;;
18114;SDS011;9184;54.390;18.620;2023-11-22T00:23:17;75.13;;;29.30;;
18114;SDS011;9184;54.390;18.620;2023-11-22T00:23:48;88.33;;;32.43;;
18114;SDS011;9184;54.390;18.620;2023-11-22T00:24:19;89.60;;;33.37;;
18114;SDS011;9184;54.390;18.620;2023-11-22T00:24:52;83.63;;;30.20;;
18114;SDS011;9184;54.390;18.620;2023-11-22T00:25:22;89.70;;;32.33;;
18114;SDS011;9184;54.390;18.620;2023-11-22T00:25:54;82.53;;;29.73;;
18114;SDS011;9184;54.390;18.620;2023-11-22T00:26:25;79.43;;;29.73;;
18114;SDS011;9184;54.390;18.620;2023-11-22T00:26:56;73.07;;;28.00;;
18114;SDS011;9184;54.390;18.620;2023-11-22T00:27:27;87.17;;;29.17;;
18114;SDS011;9184;54.390;18.620;2023-11-22T00:27:59;70.13;;;27.57;;
18114;SDS011;9184;54.390;18.620;2023-11-22T00:28:30;65.40;;;25.67;;
18114;SDS011;9184;54.390;18.620;2023-11-22T00:29:02;68.07;;;27.10;;
18114;SDS011;9184;54.390;18.620;2023-11-22T00:29:32;71.53;;;26.67;;
18114;SDS011;9184;54.390;18.620;2023-11-22T00:30:04;69.50;;;26.03;;
18114;SDS011;9184;54.390;18.620;2023-11-22T00:30:35;58.17;;;24.23;;
18114;SDS011;9184;54.390;18.620;2023-11-22T00:31:06;51.13;;;23.33;;
18114;SDS011;9184;54.390;18.620;2023-11-22T00:31:36;60.83;;;24.83;;
18114;SDS011;9184;54.390;18.620;2023-11-22T00:32:08;48.60;;;22.83;;
18114;SDS011;9184;54.390;18.620;2023-11-22T00:32:39;53.20;;;23.83;;
18114;SDS011;9184;54.390;18.620;2023-11-22T00:33:10;50.37;;;23.93;;
18114;SDS011;9184;54.390;18.620;2023-11-22T00:33:41;51.67;;;23.30;;
18114;SDS011;9184;54.390;18.620;2023-11-22T00:34:12;52.37;;;23.97;;
18114;SDS011;9184;54.390;18.620;2023-11-22T00:34:43;55.30;;;24.67;;
18114;SDS011;9184;54.390;18.620;2023-11-22T00:35:13;53.97;;;24.00;;
18114;SDS011;9184;54.390;18.620;2023-11-22T00:35:44;53.23;;;24.27;;
18114;SDS011;9184;54.390;18.620;2023-11-22T00:36:15;51.20;;;23.93;;
18114;SDS011;9184;54.390;18.620;2023-11-22T00:36:46;63.83;;;26.47;;
18114;SDS011;9184;54.390;18.620;2023-11-22T00:37:17;56.47;;;25.80;;
18114;SDS011;9184;54.390;18.620;2023-11-22T00:37:48;52.60;;;24.70;;
18114;SDS011;9184;54.390;18.620;2023-11-22T00:38:19;46.47;;;24.57;;
18114;SDS011;9184;54.390;18.620;2023-11-22T00:38:50;57.47;;;24.73;;
18114;SDS011;9184;54.390;18.620;2023-11-22T00:39:20;54.33;;;24.13;;
18114;SDS011;9184;54.390;18.620;2023-11-22T00:39:52;49.13;;;23.87;;
18114;SDS011;9184;54.390;18.620;2023-11-22T00:40:24;46.77;;;22.77;;
18114;SDS011;9184;54.390;18.620;2023-11-22T00:40:54;56.17;;;26.23;;
18114;SDS011;9184;54.390;18.620;2023-11-22T00:41:29;49.57;;;24.53;;
18114;SDS011;9184;54.390;18.620;2023-11-22T00:42:00;42.50;;;22.67;;
18114;SDS011;9184;54.390;18.620;2023-11-22T00:42:31;40.83;;;20.97;;
18114;SDS011;9184;54.390;18.620;2023-11-22T00:43:01;35.37;;;19.73;;
18114;SDS011;9184;54.390;18.620;2023-11-22T00:43:32;45.30;;;21.17;;
18114;SDS011;9184;54.390;18.620;2023-11-22T00:44:04;36.33;;;19.13;;
18114;SDS011;9184;54.390;18.620;2023-11-22T00:44:36;34.87;;;19.07;;
18114;SDS011;9184;54.390;18.620;2023-11-22T00:45:06;36.97;;;18.83;;
18114;SDS011;9184;54.390;18.620;2023-11-22T00:45:37;33.37;;;18.10;;
18114;SDS011;9184;54.390;18.620;2023-11-22T00:46:08;35.63;;;18.20;;
18114;SDS011;9184;54.390;18.620;2023-11-22T00:46:39;36.17;;;19.03;;
18114;SDS011;9184;54.390;18.620;2023-11-22T00:47:09;37.10;;;19.33;;
18114;SDS011;9184;54.390;18.620;2023-11-22T00:47:40;34.03;;;18.93;;
18114;SDS011;9184;54.390;18.620;2023-11-22T00:48:12;35.50;;;18.57;;
18114;SDS011;9184;54.390;18.620;2023-11-22T00:48:43;32.57;;;18.67;;
18114;SDS011;9184;54.390;18.620;2023-11-22T00:49:13;35.33;;;18.67;;
18114;SDS011;9184;54.390;18.620;2023-11-22T00:49:44;32.60;;;18.67;;
18114;SDS011;9184;54.390;18.620;2023-11-22T00:50:15;33.63;;;18.73;;
18114;SDS011;9184;54.390;18.620;2023-11-22T00:50:49;34.97;;;18.33;;
18114;SDS011;9184;54.390;18.620;2023-11-22T00:51:21;34.30;;;18.77;;
18114;SDS011;9184;54.390;18.620;2023-11-22T00:51:52;35.10;;;18.20;;
18114;SDS011;9184;54.390;18.620;2023-11-22T00:52:22;34.67;;;18.93;;
18114;SDS011;9184;54.390;18.620;2023-11-22T00:52:54;37.20;;;17.57;;
18114;SDS011;9184;54.390;18.620;2023-11-22T00:53:25;31.80;;;17.87;;
18114;SDS011;9184;54.390;18.620;2023-11-22T00:53:55;29.20;;;17.00;;
18114;SDS011;9184;54.390;18.620;2023-11-22T00:54:26;32.97;;;17.17;;
18114;SDS011;9184;54.390;18.620;2023-11-22T00:54:57;28.90;;;17.67;;
18114;SDS011;9184;54.390;18.620;2023-11-22T00:55:27;29.10;;;15.90;;
18114;SDS011;9184;54.390;18.620;2023-11-22T00:55:58;27.30;;;16.40;;
18114;SDS011;9184;54.390;18.620;2023-11-22T00:56:28;28.20;;;15.93;;
18114;SDS011;9184;54.390;18.620;2023-11-22T00:56:59;35.60;;;19.33;;
18114;SDS011;9184;54.390;18.620;2023-11-22T00:57:31;34.20;;;18.33;;
18114;SDS011;9184;54.390;18.620;2023-11-22T00:58:01;32.50;;;18.60;;
18114;SDS011;9184;54.390;18.620;2023-11-22T00:58:34;34.70;;;18.70;;
18114;SDS011;9184;54.390;18.620;2023-11-22T00:59:18;33.47;;;17.83;;
18114;SDS011;9184;54.390;18.620;2023-11-22T00:59:50;30.20;;;16.20;;
18114;SDS011;9184;54.390;18.620;2023-11-22T01:00:21;28.50;;;15.47;;
18114;SDS011;9184;54.390;18.620;2023-11-22T01:00:51;31.40;;;17.47;;
18114;SDS011;9184;54.390;18.620;2023-11-22T01:01:22;29.87;;;16.13;;
18114;SDS011;9184;54.390;18.620;2023-11-22T01:01:53;28.23;;;14.80;;
18114;SDS011;9184;54.390;18.620;2023-11-22T01:02:24;25.67;;;15.43;;
18114;SDS011;9184;54.390;18.620;2023-11-22T01:02:54;26.60;;;16.03;;
18114;SDS011;9184;54.390;18.620;2023-11-22T01:03:25;28.10;;;16.13;;
18114;SDS011;9184;54.390;18.620;2023-11-22T01:03:56;25.30;;;15.50;;
18114;SDS011;9184;54.390;18.620;2023-11-22T01:04:27;31.70;;;16.07;;
18114;SDS011;9184;54.390;18.620;2023-11-22T01:04:58;28.40;;;16.03;;
18114;SDS011;9184;54.390;18.620;2023-11-22T01:05:28;27.23;;;14.77;;
18114;SDS011;9184;54.390;18.620;2023-11-22T01:05:59;27.23;;;16.40;;
18114;SDS011;9184;54.390;18.620;2023-11-22T01:06:30;30.10;;;16.20;;
18114;SDS011;9184;54.390;18.620;2023-11-22T01:07:02;27.57;;;15.27;;
18114;SDS011;9184;54.390;18.620;2023-11-22T01:07:34;24.00;;;15.00;;
18114;SDS011;9184;54.390;18.620;2023-11-22T01:08:04;23.23;;;13.97;;
18114;SDS011;9184;54.390;18.620;2023-11-22T01:08:36;24.97;;;15.07;;
18114;SDS011;9184;54.390;18.620;2023-11-22T01:09:07;27.50;;;15.73;;
18114;SDS011;9184;54.390;18.620;2023-11-22T01:09:38;28.07;;;15.77;;
18114;SDS011;9184;54.390;18.620;2023-11-22T01:10:10;27.43;;;14.50;;
18114;SDS011;9184;54.390;18.620;2023-11-22T01:10:41;29.83;;;15.10;;
18114;SDS011;9184;54.390;18.620;2023-11-22T01:11:11;23.23;;;14.47;;
18114;SDS011;9184;54.390;18.620;2023-11-22T01:11:43;23.00;;;14.73;;
18114;SDS011;9184;54.390;18.620;2023-11-22T01:12:14;25.13;;;14.77;;
18114;SDS011;9184;54.390;18.620;2023-11-22T01:12:45;26.30;;;14.97;;
18114;SDS011;9184;54.390;18.620;2023-11-22T01:13:16;25.43;;;15.50;;
18114;SDS011;9184;54.390;18.620;2023-11-22T01:13:46;30.10;;;16.73;;
18114;SDS011;9184;54.390;18.620;2023-11-22T01:14:16;26.37;;;14.93;;
18114;SDS011;9184;54.390;18.620;2023-11-22T01:14:50;25.50;;;15.00;;
18114;SDS011;9184;54.390;18.620;2023-11-22T01:15:20;25.83;;;15.40;;
18114;SDS011;9184;54.390;18.620;2023-11-22T01:15:51;26.60;;;15.47;;
18114;SDS011;9184;54.390;18.620;2023-11-22T01:16:22;22.87;;;13.70;;
18114;SDS011;9184;54.390;18.620;2023-11-22T01:16:53;23.30;;;15.40;;
18114;SDS011;9184;54.390;18.620;2023-11-22T01:17:24;23.67;;;14.13;;
18114;SDS011;9184;54.390;18.620;2023-11-22T01:17:55;26.13;;;14.70;;
18114;SDS011;9184;54.390;18.620;2023-11-22T01:18:25;31.53;;;16.77;;
18114;SDS011;9184;54.390;18.620;2023-11-22T01:18:57;28.30;;;16.37;;
18114;SDS011;9184;54.390;18.620;2023-11-22T01:19:27;26.87;;;15.33;;
18114;SDS011;9184;54.390;18.620;2023-11-22T01:19:58;29.60;;;16.17;;
18114;SDS011;9184;54.390;18.620;2023-11-22T01:20:28;26.40;;;15.10;;
18114;SDS011;9184;54.390;18.620;2023-11-22T01:20:59;29.23;;;16.43;;
18114;SDS011;9184;54.390;18.620;2023-11-22T01:21:30;29.03;;;16.33;;
18114;SDS011;9184;54.390;18.620;2023-11-22T01:22:01;30.50;;;16.47;;
18114;SDS011;9184;54.390;18.620;2023-11-22T01:22:31;28.47;;;16.93;;
18114;SDS011;9184;54.390;18.620;2023-11-22T01:23:03;29.87;;;17.17;;
18114;SDS011;9184;54.390;18.620;2023-11-22T01:23:34;26.73;;;16.37;;
18114;SDS011;9184;54.390;18.620;2023-11-22T01:24:05;28.73;;;16.60;;
18114;SDS011;9184;54.390;18.620;2023-11-22T01:24:35;27.50;;;16.20;;
18114;SDS011;9184;54.390;18.620;2023-11-22T01:25:07;24.90;;;15.40;;
18114;SDS011;9184;54.390;18.620;2023-11-22T01:25:38;28.07;;;17.30;;
18114;SDS011;9184;54.390;18.620;2023-11-22T01:26:08;32.13;;;17.20;;
18114;SDS011;9184;54.390;18.620;2023-11-22T01:26:39;28.60;;;17.00;;
18114;SDS011;9184;54.390;18.620;2023-11-22T01:27:11;30.70;;;16.70;;
18114;SDS011;9184;54.390;18.620;2023-11-22T01:27:41;33.90;;;17.27;;
18114;SDS011;9184;54.390;18.620;2023-11-22T01:28:12;25.03;;;15.37;;
18114;SDS011;9184;54.390;18.620;2023-11-22T01:28:44;33.60;;;16.90;;
18114;SDS011;9184;54.390;18.620;2023-11-22T01:29:15;27.57;;;16.37;;
18114;SDS011;9184;54.390;18.620;2023-11-22T01:29:45;31.10;;;16.90;;
18114;SDS011;9184;54.390;18.620;2023-11-22T01:30:18;30.90;;;17.23;;
18114;SDS011;9184;54.390;18.620;2023-11-22T01:30:48;32.70;;;18.13;;
18114;SDS011;9184;54.390;18.620;2023-11-22T01:31:19;31.33;;;17.17;;
18114;SDS011;9184;54.390;18.620;2023-11-22T01:31:51;31.87;;;17.60;;
18114;SDS011;9184;54.390;18.620;2023-11-22T01:32:22;33.13;;;17.50;;
18114;SDS011;9184;54.390;18.620;2023-11-22T01:32:53;33.80;;;17.43;;
18114;SDS011;9184;54.390;18.620;2023-11-22T01:33:23;35.17;;;17.07;;
18114;SDS011;9184;54.390;18.620;2023-11-22T01:33:54;37.97;;;18.47;;
18114;SDS011;9184;54.390;18.620;2023-11-22T01:34:25;39.43;;;19.33;;
18114;SDS011;9184;54.390;18.620;2023-11-22T01:34:56;34.60;;;18.23;;
18114;SDS011;9184;54.390;18.620;2023-11-22T01:35:29;34.60;;;18.63;;
18114;SDS011;9184;54.390;18.620;2023-11-22T01:35:59;31.73;;;18.17;;
18114;SDS011;9184;54.390;18.620;2023-11-22T01:36:30;32.60;;;18.33;;
18114;SDS011;9184;54.390;18.620;2023-11-22T01:37:02;35.67;;;18.07;;
18114;SDS011;9184;54.390;18.620;2023-11-22T01:37:33;32.50;;;17.20;;
18114;SDS011;9184;54.390;18.620;2023-11-22T01:38:03;30.50;;;17.97;;
18114;SDS011;9184;54.390;18.620;2023-11-22T01:38:35;38.13;;;19.13;;
18114;SDS011;9184;54.390;18.620;2023-11-22T01:39:05;38.80;;;17.93;;
18114;SDS011;9184;54.390;18.620;2023-11-22T01:39:38;31.47;;;17.93;;
18114;SDS011;9184;54.390;18.620;2023-11-22T01:40:10;28.17;;;16.47;;
18114;SDS011;9184;54.390;18.620;2023-11-22T01:40:43;34.60;;;18.10;;
18114;SDS011;9184;54.390;18.620;2023-11-22T01:41:13;31.40;;;17.67;;
18114;SDS011;9184;54.390;18.620;2023-11-22T01:41:44;31.50;;;17.83;;
18114;SDS011;9184;54.390;18.620;2023-11-22T01:42:14;36.93;;;17.30;;
18114;SDS011;9184;54.390;18.620;2023-11-22T01:42:46;36.37;;;18.90;;
18114;SDS011;9184;54.390;18.620;2023-11-22T01:43:17;33.73;;;19.47;;
18114;SDS011;9184;54.390;18.620;2023-11-22T01:43:48;32.33;;;19.17;;
18114;SDS011;9184;54.390;18.620;2023-11-22T01:44:20;33.37;;;18.57;;
18114;SDS011;9184;54.390;18.620;2023-11-22T01:44:52;36.70;;;18.37;;
18114;SDS011;9184;54.390;18.620;2023-11-22T01:45:24;34.77;;;18.83;;
18114;SDS011;9184;54.390;18.620;2023-11-22T01:45:56;37.03;;;19.27;;
18114;SDS011;9184;54.390;18.620;2023-11-22T01:46:27;34.23;;;17.77;;
18114;SDS011;9184;54.390;18.620;2023-11-22T01:46:58;33.30;;;19.23;;
18114;SDS011;9184;54.390;18.620;2023-11-22T01:47:29;34.80;;;18.53;;
18114;SDS011;9184;54.390;18.620;2023-11-22T01:47:59;35.63;;;19.00;;
18114;SDS011;9184;54.390;18.620;2023-11-22T01:48:32;32.47;;;19.20;;
18114;SDS011;9184;54.390;18.620;2023-11-22T01:49:03;34.43;;;18.47;;
18114;SDS011;9184;54.390;18.620;2023-11-22T01:49:33;34.43;;;18.73;;
18114;SDS011;9184;54.390;18.620;2023-11-22T01:50:06;29.97;;;17.87;;
18114;SDS011;9184;54.390;18.620;2023-11-22T01:50:38;35.17;;;18.60;;
18114;SDS011;9184;54.390;18.620;2023-11-22T01:51:10;33.77;;;17.93;;
18114;SDS011;9184;54.390;18.620;2023-11-22T01:51:41;35.00;;;18.90;;
18114;SDS011;9184;54.390;18.620;2023-11-22T01:52:11;29.93;;;18.37;;
18114;SDS011;9184;54.390;18.620;2023-11-22T01:52:43;31.83;;;18.53;;
18114;SDS011;9184;54.390;18.620;2023-11-22T01:53:14;32.50;;;18.80;;
18114;SDS011;9184;54.390;18.620;2023-11-22T01:53:46;34.30;;;18.60;;
18114;SDS011;9184;54.390;18.620;2023-11-22T01:54:17;37.30;;;20.37;;
18114;SDS011;9184;54.390;18.620;2023-11-22T01:54:49;35.23;;;19.00;;
18114;SDS011;9184;54.390;18.620;2023-11-22T01:55:20;38.90;;;19.53;;
18114;SDS011;9184;54.390;18.620;2023-11-22T01:55:50;33.43;;;19.30;;
18114;SDS011;9184;54.390;18.620;2023-11-22T01:56:21;35.17;;;18.43;;
18114;SDS011;9184;54.390;18.620;2023-11-22T01:56:53;37.90;;;19.60;;
18114;SDS011;9184;54.390;18.620;2023-11-22T01:57:27;36.60;;;18.93;;
18114;SDS011;9184;54.390;18.620;2023-11-22T01:57:58;32.73;;;18.00;;
18114;SDS011;9184;54.390;18.620;2023-11-22T01:58:29;31.47;;;17.97;;
18114;SDS011;9184;54.390;18.620;2023-11-22T01:59:00;35.30;;;18.67;;
18114;SDS011;9184;54.390;18.620;2023-11-22T01:59:30;33.73;;;19.37;;
18114;SDS011;9184;54.390;18.620;2023-11-22T02:00:01;35.10;;;19.57;;
18114;SDS011;9184;54.390;18.620;2023-11-22T02:00:40;30.00;;;18.00;;
18114;SDS011;9184;54.390;18.620;2023-11-22T02:01:12;31.90;;;18.87;;
18114;SDS011;9184;54.390;18.620;2023-11-22T02:01:42;29.83;;;16.80;;
18114;SDS011;9184;54.390;18.620;2023-11-22T02:02:13;33.83;;;19.47;;
18114;SDS011;9184;54.390;18.620;2023-11-22T02:02:44;33.67;;;18.37;;
18114;SDS011;9184;54.390;18.620;2023-11-22T02:03:15;32.37;;;17.73;;
18114;SDS011;9184;54.390;18.620;2023-11-22T02:03:46;32.53;;;18.73;;
18114;SDS011;9184;54.390;18.620;2023-11-22T02:04:17;33.53;;;18.00;;
18114;SDS011;9184;54.390;18.620;2023-11-22T02:04:49;37.53;;;19.93;;
18114;SDS011;9184;54.390;18.620;2023-11-22T02:05:20;34.00;;;18.83;;
18114;SDS011;9184;54.390;18.620;2023-11-22T02:05:50;29.13;;;17.60;;
18114;SDS011;9184;54.390;18.620;2023-11-22T02:06:21;37.77;;;20.00;;
18114;SDS011;9184;54.390;18.620;2023-11-22T02:06:53;34.40;;;19.13;;
18114;SDS011;9184;54.390;18.620;2023-11-22T02:07:23;35.90;;;19.50;;
18114;SDS011;9184;54.390;18.620;2023-11-22T02:08:27;35.83;;;19.37;;
18114;SDS011;9184;54.390;18.620;2023-11-22T02:08:59;39.03;;;20.40;;
18114;SDS011;9184;54.390;18.620;2023-11-22T02:09:29;33.60;;;19.80;;
18114;SDS011;9184;54.390;18.620;2023-11-22T02:10:00;33.83;;;19.23;;
18114;SDS011;9184;54.390;18.620;2023-11-22T02:10:32;36.47;;;19.03;;
18114;SDS011;9184;54.390;18.620;2023-11-22T02:11:03;37.00;;;18.47;;
18114;SDS011;9184;54.390;18.620;2023-11-22T02:11:34;36.47;;;20.03;;
18114;SDS011;9184;54.390;18.620;2023-11-22T02:12:05;42.17;;;19.43;;
18114;SDS011;9184;54.390;18.620;2023-11-22T02:12:36;38.03;;;19.23;;
18114;SDS011;9184;54.390;18.620;2023-11-22T02:13:07;37.70;;;19.17;;
18114;SDS011;9184;54.390;18.620;2023-11-22T02:13:37;32.70;;;17.97;;
18114;SDS011;9184;54.390;18.620;2023-11-22T02:14:08;35.63;;;19.27;;
18114;SDS011;9184;54.390;18.620;2023-11-22T02:14:40;31.00;;;17.87;;
18114;SDS011;9184;54.390;18.620;2023-11-22T02:15:10;38.37;;;18.47;;
18114;SDS011;9184;54.390;18.620;2023-11-22T02:15:42;38.47;;;19.03;;
18114;SDS011;9184;54.390;18.620;2023-11-22T02:16:13;33.33;;;18.47;;
18114;SDS011;9184;54.390;18.620;2023-11-22T02:16:44;30.00;;;18.20;;
18114;SDS011;9184;54.390;18.620;2023-11-22T02:17:55;32.73;;;18.00;;
18114;SDS011;9184;54.390;18.620;2023-11-22T02:18:59;36.47;;;18.63;;
18114;SDS011;9184;54.390;18.620;2023-11-22T02:19:30;32.73;;;17.97;;
18114;SDS011;9184;54.390;18.620;2023-11-22T02:20:01;31.13;;;16.93;;
18114;SDS011;9184;54.390;18.620;2023-11-22T02:20:36;40.37;;;20.10;;
18114;SDS011;9184;54.390;18.620;2023-11-22T02:21:06;31.50;;;17.70;;
18114;SDS011;9184;54.390;18.620;2023-11-22T02:21:37;35.63;;;18.53;;
18114;SDS011;9184;54.390;18.620;2023-11-22T02:22:08;38.03;;;19.20;;
18114;SDS011;9184;54.390;18.620;2023-11-22T02:22:45;29.13;;;17.23;;
18114;SDS011;9184;54.390;18.620;2023-11-22T02:23:17;31.87;;;18.27;;
18114;SDS011;9184;54.390;18.620;2023-11-22T02:23:48;34.70;;;18.67;;
18114;SDS011;9184;54.390;18.620;2023-11-22T02:24:19;33.40;;;17.07;;
18114;SDS011;9184;54.390;18.620;2023-11-22T02:24:53;36.77;;;19.17;;
18114;SDS011;9184;54.390;18.620;2023-11-22T02:25:24;37.10;;;19.63;;
18114;SDS011;9184;54.390;18.620;2023-11-22T02:25:54;33.37;;;18.57;;
18114;SDS011;9184;54.390;18.620;2023-11-22T02:26:26;28.60;;;16.60;;
18114;SDS011;9184;54.390;18.620;2023-11-22T02:26:56;34.73;;;18.77;;
18114;SDS011;9184;54.390;18.620;2023-11-22T02:27:27;32.27;;;17.63;;
18114;SDS011;9184;54.390;18.620;2023-11-22T02:27:57;36.73;;;19.17;;
18114;SDS011;9184;54.390;18.620;2023-11-22T02:28:29;31.33;;;18.83;;
18114;SDS011;9184;54.390;18.620;2023-11-22T02:28:59;33.10;;;19.13;;
18114;SDS011;9184;54.390;18.620;2023-11-22T02:29:30;31.97;;;18.07;;
18114;SDS011;9184;54.390;18.620;2023-11-22T02:30:01;29.80;;;16.57;;
18114;SDS011;9184;54.390;18.620;2023-11-22T02:30:35;32.17;;;17.70;;
18114;SDS011;9184;54.390;18.620;2023-11-22T02:31:06;34.00;;;18.17;;
18114;SDS011;9184;54.390;18.620;2023-11-22T02:31:36;37.47;;;18.60;;
18114;SDS011;9184;54.390;18.620;2023-11-22T02:32:07;34.30;;;19.03;;
18114;SDS011;9184;54.390;18.620;2023-11-22T02:32:39;35.30;;;17.77;;
18114;SDS011;9184;54.390;18.620;2023-11-22T02:33:09;29.93;;;18.20;;
18114;SDS011;9184;54.390;18.620;2023-11-22T02:33:40;39.13;;;19.90;;
18114;SDS011;9184;54.390;18.620;2023-11-22T02:34:12;33.77;;;18.37;;
18114;SDS011;9184;54.390;18.620;2023-11-22T02:34:43;31.03;;;18.27;;
18114;SDS011;9184;54.390;18.620;2023-11-22T02:35:13;36.37;;;19.07;;
18114;SDS011;9184;54.390;18.620;2023-11-22T02:35:46;33.43;;;18.23;;
18114;SDS011;9184;54.390;18.620;2023-11-22T02:36:16;40.47;;;18.63;;
18114;SDS011;9184;54.390;18.620;2023-11-22T02:36:48;35.40;;;18.57;;
18114;SDS011;9184;54.390;18.620;2023-11-22T02:37:18;34.37;;;19.80;;
18114;SDS011;9184;54.390;18.620;2023-11-22T02:37:49;31.70;;;17.53;;
18114;SDS011;9184;54.390;18.620;2023-11-22T02:38:21;35.33;;;19.37;;
18114;SDS011;9184;54.390;18.620;2023-11-22T02:38:52;34.60;;;18.93;;
18114;SDS011;9184;54.390;18.620;2023-11-22T02:39:24;33.27;;;19.40;;
18114;SDS011;9184;54.390;18.620;2023-11-22T02:40:00;38.23;;;20.87;;
18114;SDS011;9184;54.390;18.620;2023-11-22T02:40:34;38.63;;;22.80;;
18114;SDS011;9184;54.390;18.620;2023-11-22T02:41:06;42.20;;;23.07;;
18114;SDS011;9184;54.390;18.620;2023-11-22T02:41:37;35.43;;;21.20;;
18114;SDS011;9184;54.390;18.620;2023-11-22T02:42:07;37.83;;;21.57;;
18114;SDS011;9184;54.390;18.620;2023-11-22T02:42:39;37.07;;;21.17;;
18114;SDS011;9184;54.390;18.620;2023-11-22T02:43:10;36.63;;;20.07;;
18114;SDS011;9184;54.390;18.620;2023-11-22T02:43:41;34.90;;;19.83;;
18114;SDS011;9184;54.390;18.620;2023-11-22T02:44:11;37.53;;;20.13;;
18114;SDS011;9184;54.390;18.620;2023-11-22T02:44:47;39.87;;;20.27;;
18114;SDS011;9184;54.390;18.620;2023-11-22T02:45:19;35.10;;;18.57;;
18114;SDS011;9184;54.390;18.620;2023-11-22T02:45:50;34.00;;;18.00;;
18114;SDS011;9184;54.390;18.620;2023-11-22T02:46:20;36.23;;;19.70;;
18114;SDS011;9184;54.390;18.620;2023-11-22T02:46:51;35.30;;;19.37;;
18114;SDS011;9184;54.390;18.620;2023-11-22T02:47:21;38.70;;;19.37;;
18114;SDS011;9184;54.390;18.620;2023-11-22T02:47:52;35.73;;;19.93;;
18114;SDS011;9184;54.390;18.620;2023-11-22T02:48:23;36.67;;;21.13;;
18114;SDS011;9184;54.390;18.620;2023-11-22T02:48:53;32.87;;;18.90;;
18114;SDS011;9184;54.390;18.620;2023-11-22T02:49:25;35.50;;;20.00;;
18114;SDS011;9184;54.390;18.620;2023-11-22T02:49:55;32.23;;;18.90;;
18114;SDS011;9184;54.390;18.620;2023-11-22T02:50:26;33.50;;;20.13;;
18114;SDS011;9184;54.390;18.620;2023-11-22T02:51:37;43.00;;;20.83;;
18114;SDS011;9184;54.390;18.620;2023-11-22T02:52:08;33.93;;;18.53;;
18114;SDS011;9184;54.390;18.620;2023-11-22T02:52:39;38.37;;;19.87;;
18114;SDS011;9184;54.390;18.620;2023-11-22T02:53:09;36.30;;;18.67;;
18114;SDS011;9184;54.390;18.620;2023-11-22T02:53:42;33.10;;;20.63;;
18114;SDS011;9184;54.390;18.620;2023-11-22T02:54:13;34.07;;;19.03;;
18114;SDS011;9184;54.390;18.620;2023-11-22T02:54:45;35.20;;;20.37;;
18114;SDS011;9184;54.390;18.620;2023-11-22T02:55:16;35.63;;;19.90;;
18114;SDS011;9184;54.390;18.620;2023-11-22T02:55:46;35.57;;;19.40;;
18114;SDS011;9184;54.390;18.620;2023-11-22T02:56:17;33.37;;;18.70;;
18114;SDS011;9184;54.390;18.620;2023-11-22T02:56:48;32.67;;;18.30;;
18114;SDS011;9184;54.390;18.620;2023-11-22T02:57:19;32.13;;;18.57;;
18114;SDS011;9184;54.390;18.620;2023-11-22T02:57:49;33.17;;;18.47;;
18114;SDS011;9184;54.390;18.620;2023-11-22T02:58:20;35.77;;;19.03;;
18114;SDS011;9184;54.390;18.620;2023-11-22T02:58:51;34.80;;;19.13;;
18114;SDS011;9184;54.390;18.620;2023-11-22T02:59:22;33.07;;;19.37;;
18114;SDS011;9184;54.390;18.620;2023-11-22T02:59:54;34.40;;;18.05;;
18114;SDS011;9184;54.390;18.620;2023-11-22T03:00:25;29.10;;;17.10;;
18114;SDS011;9184;54.390;18.620;2023-11-22T03:00:57;30.20;;;18.40;;
18114;SDS011;9184;54.390;18.620;2023-11-22T03:01:28;30.13;;;16.73;;
18114;SDS011;9184;54.390;18.620;2023-11-22T03:01:58;31.20;;;17.43;;
18114;SDS011;9184;54.390;18.620;2023-11-22T03:02:29;37.67;;;18.80;;
18114;SDS011;9184;54.390;18.620;2023-11-22T03:02:59;33.03;;;17.43;;
18114;SDS011;9184;54.390;18.620;2023-11-22T03:03:30;38.47;;;18.93;;
18114;SDS011;9184;54.390;18.620;2023-11-22T03:04:01;37.97;;;18.83;;
18114;SDS011;9184;54.390;18.620;2023-11-22T03:04:31;31.50;;;17.83;;
18114;SDS011;9184;54.390;18.620;2023-11-22T03:05:02;31.53;;;17.20;;
18114;SDS011;9184;54.390;18.620;2023-11-22T03:05:33;34.43;;;18.07;;